Time;durP1;ratioP1;P1;durP2;ratioP2;P2;SDS_P1;SDS_P2;PMS_P1;PMS_P2;Temp;Humidity;BMP_temperature;BMP_pressure;BME280_temperature;BME280_humidity;BME280_pressure;Samples;Min_cycle;Max_cycle;Signal;HPM_P1;HPM_P2
2021/11/23 05:40:51;;;;;;;27.25;14.28;;;;;;;1.70;95.29;100413.41;1740426;82;21069;-43
2021/11/23 05:43:21;;;;;;;30.08;14.55;;;;;;;1.75;95.16;100418.33;1716124;82;21680;-43
2021/11/23 05:45:52;;;;;;;27.02;16.42;;;;;;;1.77;95.08;100420.54;1690479;82;21147;-44
2021/11/23 05:48:24;;;;;;;32.58;18.20;;;;;;;1.79;94.64;100423.63;1706499;82;21010;-47
2021/11/23 05:50:53;;;;;;;33.78;19.62;;;;;;;1.79;94.33;100426.20;1706408;82;21516;-44
2021/11/23 05:53:21;;;;;;;24.63;14.83;;;;;;;1.80;94.50;100429.70;1698596;82;21035;-47
2021/11/23 05:55:53;;;;;;;17.82;13.50;;;;;;;1.79;94.30;100426.63;1685133;83;21724;-42
2021/11/23 05:58:51;;;;;;;21.97;15.15;;;;;;;1.77;94.22;100433.02;1703978;83;21060;-42
2021/11/23 06:01:49;;;;;;;27.10;15.93;;;;;;;1.75;94.38;100433.80;1673504;84;21086;-43
2021/11/23 06:04:17;;;;;;;22.95;15.15;;;;;;;1.74;94.38;100437.17;1648274;85;21150;-45
2021/11/23 06:06:53;;;;;;;24.85;15.72;;;;;;;1.75;94.38;100441.55;1622786;85;21024;-45
2021/11/23 06:09:25;;;;;;;21.52;14.55;;;;;;;1.75;94.41;100440.25;1670051;84;21503;-46
2021/11/23 06:11:59;;;;;;;31.62;19.70;;;;;;;1.75;94.43;100436.38;1625226;85;21536;-44
2021/11/23 06:14:40;;;;;;;24.70;15.18;;;;;;;1.76;94.43;100446.75;1637501;85;21355;-44
2021/11/23 06:17:10;;;;;;;21.25;13.15;;;;;;;1.77;94.33;100443.75;1671814;84;21062;-44
2021/11/23 06:19:40;;;;;;;18.60;12.07;;;;;;;1.77;94.35;100449.80;1654402;85;21527;-45
2021/11/23 06:22:12;;;;;;;26.40;12.98;;;;;;;1.80;94.52;100455.50;1659120;84;21100;-46
2021/11/23 06:24:44;;;;;;;18.25;12.28;;;;;;;1.83;94.36;100468.08;1661370;84;21454;-43
2021/11/23 06:27:30;;;;;;;17.90;10.65;;;;;;;1.85;94.12;100465.55;1646972;85;21063;-45
2021/11/23 06:30:14;;;;;;;20.75;12.58;;;;;;;1.86;94.09;100464.34;1651985;81;21107;-48
2021/11/23 06:33:00;;;;;;;19.98;11.95;;;;;;;1.90;93.97;100469.60;1690351;83;21064;-43
2021/11/23 07:04:32;;;;;;;12.28;7.72;;;;;;;2.06;93.17;100490.88;1620379;81;22905;-43
2021/11/23 07:07:42;;;;;;;14.80;7.08;;;;;;;2.12;92.90;100492.81;1638672;85;21793;-44
2021/11/23 07:11:15;;;;;;;9.60;6.80;;;;;;;2.16;92.31;100493.40;1622293;85;21072;-46
2021/11/23 07:22:37;;;;;;;10.20;7.80;;;;;;;2.46;91.19;100488.45;1593022;84;21418;-42
2021/11/23 07:30:03;;;;;;;12.35;7.25;;;;;;;2.58;89.96;100490.59;1576672;86;21654;-42
2021/11/23 07:33:44;;;;;;;12.00;8.25;;;;;;;2.62;89.72;100490.77;1627209;85;21161;-43
2021/11/23 07:40:50;;;;;;;15.08;7.55;;;;;;;2.77;89.31;100495.56;1655551;84;21108;-43
2021/11/23 07:44:05;;;;;;;13.10;7.90;;;;;;;2.80;88.65;100503.86;1661117;84;21083;-45
2021/11/23 07:47:20;;;;;;;8.98;6.55;;;;;;;2.71;88.22;100506.10;1656373;85;21100;-44
2021/11/23 07:51:10;;;;;;;11.35;6.92;;;;;;;2.64;88.68;100508.89;1660556;83;21050;-47
2021/11/23 07:54:02;;;;;;;11.85;6.47;;;;;;;2.59;87.82;100513.89;1676796;83;21534;-43
2021/11/23 08:04:19;;;;;;;7.72;6.22;;;;;;;2.54;87.58;100508.09;1629328;85;21430;-43
2021/11/23 08:43:10;;;;;;;4.17;3.47;;;;;;;3.24;82.42;100540.65;1581111;87;21412;-45
2021/11/23 08:46:45;;;;;;;5.58;3.25;;;;;;;3.29;80.85;100533.93;1562629;89;22187;-43
2021/11/23 08:50:05;;;;;;;6.37;4.05;;;;;;;3.31;80.55;100533.17;1519855;91;21781;-46
2021/11/23 08:57:09;;;;;;;7.37;4.15;;;;;;;3.41;79.15;100529.16;1515200;91;21157;-44
2021/11/23 09:04:03;;;;;;;8.03;3.62;;;;;;;3.49;78.93;100531.59;1565984;89;21138;-44
2021/11/23 09:31:29;;;;;;;4.70;3.15;;;;;;;3.68;72.71;100515.81;1555402;86;26393;-43
2021/11/23 09:35:01;;;;;;;4.15;3.05;;;;;;;3.66;72.37;100529.13;1607541;87;21043;-46
2021/11/23 09:37:52;;;;;;;3.52;2.90;;;;;;;3.66;71.30;100521.78;1568822;89;21729;-45
2021/11/23 09:40:31;;;;;;;4.62;2.52;;;;;;;3.77;70.56;100523.38;1568877;89;21132;-44
2021/11/23 09:43:11;;;;;;;3.80;2.95;;;;;;;3.89;69.71;100522.49;1528093;91;21084;-44
2021/11/23 09:45:53;;;;;;;3.02;2.60;;;;;;;4.03;69.20;100521.60;1609527;87;21107;-43
2021/11/23 09:49:07;;;;;;;4.45;2.90;;;;;;;4.19;68.76;100519.52;1584468;87;21567;-47
2021/11/23 09:54:37;;;;;;;4.17;3.27;;;;;;;4.49;66.64;100509.56;1548564;90;21125;-42
2021/11/23 09:57:36;;;;;;;6.75;3.30;;;;;;;4.49;66.41;100506.97;1527970;91;21225;-43
2021/11/23 10:00:34;;;;;;;3.50;2.87;;;;;;;4.45;65.81;100502.11;1550674;89;21172;-43
2021/11/23 10:11:29;;;;;;;5.95;3.17;;;;;;;4.24;66.42;100499.80;1619436;86;21173;-47
2021/11/23 10:15:29;;;;;;;3.00;2.20;;;;;;;4.30;65.76;100491.34;1601932;86;21853;-45
2021/11/23 10:50:24;;;;;;;15.35;10.28;;;;;;;4.68;62.74;100479.41;1696988;83;21781;-51
2021/11/23 11:02:34;;;;;;;4.67;2.95;;;;;;;5.38;60.04;100471.23;1659200;83;21155;-43
2021/11/23 11:25:30;;;;;;;4.42;3.35;;;;;;;4.36;59.01;100493.22;1589871;87;21950;-51
2021/11/23 11:33:13;;;;;;;5.62;2.83;;;;;;;4.68;58.60;100503.16;1576795;89;22070;-47
2021/11/23 11:48:55;;;;;;;10.35;5.25;;;;;;;6.77;51.04;100474.60;1597422;88;21077;-53
2021/11/23 12:11:58;;;;;;;6.70;3.10;;;;;;;9.36;44.40;100472.37;1620013;86;21370;-42
2021/11/23 12:16:02;;;;;;;5.80;3.30;;;;;;;9.37;44.20;100468.89;1605302;86;21639;-46
2021/11/23 12:19:44;;;;;;;5.22;3.20;;;;;;;9.42;43.95;100474.59;1627069;86;21086;-44
2021/11/23 12:35:31;;;;;;;6.60;3.40;;;;;;;8.31;45.30;100474.34;1626058;86;21961;-45
2021/11/23 12:38:51;;;;;;;9.38;4.35;;;;;;;8.48;43.34;100480.66;1629777;86;21433;-44
2021/11/23 12:45:58;;;;;;;7.00;3.02;;;;;;;7.83;44.75;100474.59;1692308;83;21089;-44
2021/11/23 12:48:54;;;;;;;4.83;2.35;;;;;;;7.25;44.76;100486.30;1622914;84;21186;-45
2021/11/23 12:58:41;;;;;;;5.58;3.20;;;;;;;7.23;43.86;100485.38;1692959;82;21492;-44
2021/11/23 13:01:53;;;;;;;4.05;2.90;;;;;;;7.01;43.07;100488.47;1700754;81;21801;-45
2021/11/23 13:13:18;;;;;;;4.05;2.85;;;;;;;5.06;46.80;100505.47;1675935;84;21387;-46
2021/11/23 13:16:38;;;;;;;2.83;2.40;;;;;;;4.55;48.57;100498.06;1680548;83;21072;-44
2021/11/23 13:32:28;;;;;;;3.95;1.85;;;;;;;4.81;49.00;100513.01;1562711;90;21146;-45
2021/11/23 13:35:17;;;;;;;4.50;2.40;;;;;;;4.36;50.07;100510.06;1558295;90;21759;-46
2021/11/23 13:37:53;;;;;;;3.90;2.62;;;;;;;4.00;50.99;100508.13;1543427;90;21097;-49
2021/11/23 13:40:30;;;;;;;3.65;2.80;;;;;;;3.83;51.54;100508.07;1545367;90;21136;-44
2021/11/23 13:43:32;;;;;;;3.52;2.77;;;;;;;3.71;51.88;100511.13;1536243;90;21048;-50
2021/11/23 13:50:28;;;;;;;5.08;3.30;;;;;;;3.66;52.58;100513.59;1594198;88;21124;-45
2021/11/23 13:53:21;;;;;;;4.87;3.70;;;;;;;3.77;52.58;100517.82;1498199;94;21172;-44
2021/11/23 13:55:59;;;;;;;6.25;4.60;;;;;;;3.73;52.59;100516.83;1490124;95;21074;-46
2021/11/23 13:58:58;;;;;;;11.20;6.35;;;;;;;3.63;52.76;100517.78;1489745;96;21592;-45
2021/11/23 14:01:57;;;;;;;9.80;6.35;;;;;;;3.49;53.04;100519.95;1479861;94;21118;-44
2021/11/23 14:04:32;;;;;;;9.83;6.30;;;;;;;3.39;53.35;100514.01;1522185;92;21076;-47
2021/11/23 14:07:14;;;;;;;10.98;7.47;;;;;;;3.32;53.73;100512.94;1544889;89;21593;-45
2021/11/23 14:09:54;;;;;;;12.40;8.37;;;;;;;3.29;53.98;100513.23;1541735;90;21589;-45
2021/11/23 14:12:47;;;;;;;16.77;9.75;;;;;;;3.23;54.10;100511.33;1582794;89;21091;-44
2021/11/23 14:15:22;;;;;;;26.07;11.53;;;;;;;3.18;54.27;100509.00;1556902;90;21052;-47
2021/11/23 14:18:12;;;;;;;15.95;7.85;;;;;;;3.11;54.46;100511.80;1472112;89;21018;-44
2021/11/23 14:20:58;;;;;;;24.63;9.90;;;;;;;3.07;54.77;100509.94;1579775;89;21989;-45
2021/11/23 14:23:34;;;;;;;30.00;12.53;;;;;;;3.02;55.11;100515.39;1568552;90;21056;-47
2021/11/23 14:26:23;;;;;;;16.35;8.78;;;;;;;3.01;55.32;100512.73;1588631;89;21933;-44
2021/11/23 14:29:03;;;;;;;21.20;10.85;;;;;;;2.96;55.81;100512.60;1567258;90;21036;-47
2021/11/23 14:31:35;;;;;;;24.17;15.03;;;;;;;2.89;56.01;100519.23;1577608;90;21081;-44
2021/11/23 14:34:12;;;;;;;27.25;12.90;;;;;;;2.81;55.95;100513.36;1589451;88;21055;-47
2021/11/23 14:36:47;;;;;;;25.72;11.88;;;;;;;2.78;56.12;100514.11;1594581;89;21096;-48
2021/11/23 14:39:17;;;;;;;36.17;13.18;;;;;;;2.76;56.31;100514.48;1586697;88;21078;-46
2021/11/23 14:41:45;;;;;;;32.40;11.12;;;;;;;2.71;57.21;100519.90;1585156;89;21631;-46
2021/11/23 14:44:16;;;;;;;27.60;13.78;;;;;;;2.65;57.71;100516.69;1590079;88;21146;-45
2021/11/23 14:46:42;;;;;;;24.65;12.90;;;;;;;2.61;57.74;100516.13;1597184;88;21658;-47
2021/11/23 14:49:10;;;;;;;26.60;10.43;;;;;;;2.56;57.46;100511.22;1621578;87;21721;-45
2021/11/23 14:51:38;;;;;;;46.02;10.65;;;;;;;2.51;57.59;100514.05;1599538;87;21234;-45
2021/11/23 14:54:13;;;;;;;50.20;9.90;;;;;;;2.48;57.80;100510.45;1600127;88;21071;-47
2021/11/23 14:56:47;;;;;;;18.10;7.80;;;;;;;2.46;58.21;100516.87;1588253;89;21528;-48
2021/11/23 14:59:17;;;;;;;17.15;4.95;;;;;;;2.43;58.39;100522.32;1585528;88;21048;-46
2021/11/23 15:01:53;;;;;;;7.42;5.20;;;;;;;2.39;58.42;100521.35;1634133;87;21178;-48
2021/11/23 15:04:24;;;;;;;17.52;6.67;;;;;;;2.34;58.34;100528.05;1587236;87;21575;-48
2021/11/23 15:06:52;;;;;;;20.92;6.60;;;;;;;2.32;58.36;100532.25;1594958;87;21708;-46
2021/11/23 15:09:21;;;;;;;16.23;6.35;;;;;;;2.31;58.51;100528.80;1615616;89;21068;-45
2021/11/23 15:11:52;;;;;;;12.60;6.20;;;;;;;2.29;58.95;100535.62;1615467;87;21107;-47
2021/11/23 15:14:23;;;;;;;24.15;8.35;;;;;;;2.24;59.41;100532.40;1587225;88;21138;-46
2021/11/23 15:16:51;;;;;;;18.23;7.97;;;;;;;2.20;60.09;100534.38;1588324;89;21147;-48
2021/11/23 15:19:22;;;;;;;20.97;8.98;;;;;;;2.19;60.50;100539.09;1557071;90;21098;-45
2021/11/23 15:21:56;;;;;;;18.12;8.15;;;;;;;2.14;60.96;100529.88;1526868;91;21622;-45
2021/11/23 15:24:28;;;;;;;16.85;6.90;;;;;;;2.10;61.73;100526.31;1570599;91;21011;-48
2021/11/23 15:26:59;;;;;;;;;;;;;;;2.08;61.98;100529.23;1610120;89;21115;-45
2021/11/23 15:29:28;;;;;;;13.30;7.72;;;;;;;2.06;61.81;100536.46;1597248;89;20108;-48
2021/11/23 15:31:56;;;;;;;21.65;7.50;;;;;;;2.06;61.23;100530.89;1594828;88;21137;-45
2021/11/23 15:34:23;;;;;;;18.82;7.55;;;;;;;2.04;61.16;100535.13;1608996;88;21006;-44
2021/11/23 15:36:51;;;;;;;17.87;5.90;;;;;;;2.01;61.31;100547.89;1631130;87;21706;-48
2021/11/23 15:39:19;;;;;;;14.58;5.25;;;;;;;1.96;61.75;100549.41;1576744;87;21721;-45
2021/11/23 15:41:50;;;;;;;25.72;6.00;;;;;;;1.92;62.28;100554.42;1630128;87;21134;-45
